KLUK/LUK METAR and TAF weather

Enter ICAO airport designator
Station Type Date Time Source
KLUK METAR 2020/04/02 03:53 UTC NOAA

KLUK 020353Z AUTO 00000KT 10SM OVC070 08/05 A3011 RMK AO2 SLP196 T00780050


Station Type Date Time Source
KLUK Decoded METAR 2020/04/02 03:53 UTC NOAA

CINCINNATI MUN LUNKEN FLD, OH, United States (KLUK) 39-06N 84-25W 155M
Apr 01, 2020 - 11:53 PM EDT / 2020.04.02 0353 UTC
Wind: Calm:0
Visibility: 10 mile(s):0
Sky conditions: overcast
Temperature: 46.0 F (7.8 C)
Dew Point: 41.0 F (5.0 C)
Relative Humidity: 82%
Pressure (altimeter): 30.11 in. Hg (1019 hPa)
ob: KLUK 020353Z AUTO 00000KT 10SM OVC070 08/05 A3011 RMK AO2 SLP196 T00780050
cycle: 4

Station Type Date Time Source
KLUK TAF 2020/04/01 18:42 UTC NOAA

TAF KLUK 011740Z 0118/0218 35008KT P6SM SCT025 BKN035
TEMPO 0118/0120 BKN025
FM020000 34004KT P6SM SCT070
FM020300 34003KT P6SM SCT100
FM020500 36004KT P6SM FEW250

Example: see airport list